Rito de las Sillas, New Mexico
Current Conditions -  °F | °C
As of 8:15 PM on Thursday 18 Dec 2014 (Local Time) from KLAM Reporting Station
Broken Clouds Broken Clouds  
Wind Chill: 31°   Ceiling: 11000
Heat Index: 31°   Visibility: 10mi
Dew Point: 25°   Wind: 0mph
Humidity: 79%   Direction: NA
Pressure: 30.11"   Gusts: NA
Location:  36.1885°N, 106.557°W
Report Text: KLAM 190315Z AUTO 00000KT 10SM BKN110 M01/M04 A3011 RMK AO2 T10061038
Loading
Personal Weather Stations






























Interactive Weather Map New forecast layout! Learn more

10-Day Weather Forecast

Advertisements
Track Severe Weather on mobile